PANC

Anchorage

Airport
ICAO code
PANC
Summary
ICAO Region
NAM
ICAO Territory
Location

Anchorage, Alaska,

Coordinates
61° 10' 51" N , 150° 0' 16" W
KCC
Dfc
Airport CFIT
Altimeter Temperature Error Correction
Airport RI
Runway Misidentification
Airport WX
Volcanic Ash
Metar
Observation
PANC 082024Z 15014G21KT 7SM -RA SCT020 BKN030 OVC050 12/09 A2998 RMK AO2 PK WND 15026/1959 P0002 T01170094
Station
Anchorage, Ted Stevens Anchorage International Airport
Date/Time
2022-08-08 20:24:00
Wind direction
150°
Wind speed
14 kts
Lowest cloud amount
scattered clouds
Temperature
11.7°C
Dew point
9.4°C
Humidity
85%
Weather condition
light rain

Description

International airport serving Anchorage.

Climatology

Cool continental climate/Subarctic climate (Köppen climate classification Dfc)

Runways

Designator Length Width Surface Rops
07L/25R 3231 46 ASP Yes/Yes
07R/25L 3322 46 ASP Yes/Yes
14/32 3531 46 ASP Yes/Yes

Airport map

Aerial View

SKYbrary Partners:

Safety knowledge contributed by: